Time;durP1;ratioP1;P1;durP2;ratioP2;P2;SDS_P1;SDS_P2;PMS_P1;PMS_P2;Temp;Humidity;BMP_temperature;BMP_pressure;BME280_temperature;BME280_humidity;BME280_pressure;Samples;Min_cycle;Max_cycle;Signal;HPM_P1;HPM_P2
2022/10/10 00:01:30;;;;;;;4.27;1.83;;;12.70;65.60;;;15.12;50.85;101618.50;5115387;28;20218;-57
2022/10/10 00:04:00;;;;;;;2.80;2.13;;;12.70;65.70;;;15.10;51.04;101609.88;5114234;28;20237;-58
2022/10/10 00:06:28;;;;;;;4.60;2.27;;;12.60;65.80;;;15.10;50.93;101607.22;5113914;28;20192;-57
2022/10/10 00:09:00;;;;;;;5.87;2.00;;;12.60;65.90;;;14.98;51.42;101612.16;5114331;28;20636;-57
2022/10/10 00:11:29;;;;;;;5.50;2.33;;;12.50;65.90;;;14.99;51.28;101602.38;5113841;28;20600;-57
2022/10/10 00:13:57;;;;;;;4.37;2.13;;;12.50;65.80;;;14.98;51.20;101603.38;5113967;28;20241;-58
2022/10/10 00:16:25;;;;;;;2.73;1.77;;;12.50;66.00;;;14.96;51.30;101600.91;5113933;28;20548;-57
2022/10/10 00:18:55;;;;;;;3.43;2.27;;;12.50;66.10;;;14.90;51.31;101610.41;5113857;28;20249;-56
2022/10/10 00:21:23;;;;;;;4.10;2.20;;;12.40;66.10;;;14.83;51.54;101604.19;5116611;28;20598;-58
2022/10/10 00:23:51;;;;;;;2.57;1.73;;;12.40;66.40;;;14.78;51.76;101606.59;5134622;27;20214;-57
2022/10/10 00:26:19;;;;;;;3.47;1.97;;;12.40;66.60;;;14.76;51.72;101605.13;5134341;27;20183;-57
2022/10/10 00:28:46;;;;;;;4.60;2.00;;;12.30;66.70;;;14.75;51.72;101606.09;5134911;27;20192;-58
2022/10/10 00:31:14;;;;;;;3.93;1.90;;;12.30;66.80;;;14.73;51.96;101603.66;5133710;27;20235;-58
2022/10/10 00:33:41;;;;;;;2.83;1.80;;;12.30;66.90;;;14.73;52.00;101603.66;5127698;27;20220;-58
2022/10/10 00:36:09;;;;;;;3.20;1.80;;;12.20;66.80;;;14.76;51.83;101603.25;5113720;28;20184;-59
2022/10/10 00:38:38;;;;;;;4.60;2.30;;;12.20;67.00;;;14.79;51.78;101602.91;5113708;28;20190;-58
2022/10/10 00:41:06;;;;;;;3.27;1.80;;;12.20;67.30;;;14.77;52.10;101594.31;5093580;28;20532;-59
2022/10/10 00:43:34;;;;;;;2.53;2.20;;;12.20;67.30;;;14.80;51.64;101593.97;5093928;28;20212;-58
2022/10/10 00:46:02;;;;;;;4.23;2.20;;;12.20;67.30;;;14.78;51.77;101595.97;5110367;28;20292;-58
2022/10/10 00:48:32;;;;;;;3.27;2.20;;;12.20;67.20;;;14.77;51.86;101593.50;5113971;28;20196;-58
2022/10/10 00:51:06;;;;;;;2.37;1.83;;;12.20;67.10;;;14.70;52.08;101593.41;5114140;28;20168;-58
2022/10/10 00:53:41;;;;;;;4.80;2.57;;;12.20;67.30;;;14.68;52.01;101590.09;5114060;28;20267;-58
2022/10/10 00:56:11;;;;;;;2.90;1.90;;;12.20;67.40;;;14.68;51.89;101584.81;5113743;28;20198;-59
2022/10/10 00:58:44;;;;;;;5.40;2.20;;;12.20;67.80;;;14.69;51.94;101586.44;5113938;28;20192;-58
2022/10/10 01:01:12;;;;;;;7.50;2.30;;;12.20;67.60;;;14.69;52.30;101580.34;5113517;28;20180;-58
2022/10/10 01:03:39;;;;;;;4.03;2.33;;;12.20;67.70;;;14.70;52.21;101577.50;5113712;28;20703;-59
2022/10/10 01:06:07;;;;;;;7.90;2.63;;;12.20;67.80;;;14.67;52.29;101571.72;5112902;28;20233;-57
2022/10/10 01:08:37;;;;;;;5.23;2.63;;;12.20;67.80;;;14.64;52.51;101572.91;5113936;28;20187;-58
2022/10/10 01:11:29;;;;;;;5.97;2.57;;;12.20;68.00;;;14.57;52.50;101565.88;5114308;28;20257;-57
2022/10/10 01:14:12;;;;;;;4.07;2.13;;;12.20;67.90;;;14.57;52.75;101571.19;5113782;28;20211;-56
2022/10/10 01:16:51;;;;;;;3.47;2.50;;;12.10;67.90;;;14.53;52.65;101569.88;5113271;28;20172;-57
2022/10/10 01:20:03;;;;;;;5.13;2.03;;;12.10;68.10;;;14.51;52.65;101572.72;5113846;28;20233;-55
2022/10/10 01:22:45;;;;;;;3.30;1.90;;;12.10;68.20;;;14.51;52.55;101566.59;5129456;27;20207;-57
2022/10/10 01:25:28;;;;;;;5.37;2.27;;;12.10;68.20;;;14.43;52.58;101559.53;5134023;27;20187;-57
2022/10/10 01:28:01;;;;;;;6.27;2.20;;;12.00;68.30;;;14.42;53.07;101563.19;5132976;27;20198;-57
2022/10/10 01:30:33;;;;;;;5.43;2.33;;;12.00;68.40;;;14.36;53.11;101557.78;5133806;27;20176;-57
2022/10/10 01:33:10;;;;;;;7.23;2.23;;;12.00;68.50;;;14.31;53.37;101550.34;5134989;27;20287;-57
2022/10/10 01:35:49;;;;;;;7.07;2.43;;;11.90;68.60;;;14.32;53.32;101556.50;5138345;27;20199;-57
2022/10/10 01:38:29;;;;;;;4.17;2.00;;;11.90;68.70;;;14.32;53.41;101552.03;5136964;27;20176;-57
2022/10/10 01:41:07;;;;;;;3.80;1.90;;;11.90;68.70;;;14.31;53.26;101545.06;5118484;27;20188;-57
2022/10/10 01:43:36;;;;;;;3.20;2.10;;;11.90;68.80;;;14.26;53.63;101547.41;5117264;28;20680;-56
2022/10/10 01:46:12;;;;;;;2.53;2.10;;;11.90;68.80;;;14.27;53.44;101541.09;5117125;28;20242;-57
2022/10/10 01:48:40;;;;;;;7.60;2.30;;;11.90;69.00;;;14.29;53.56;101535.66;5117191;28;20229;-58
2022/10/10 01:51:40;;;;;;;4.00;2.43;;;11.90;69.00;;;14.25;53.62;101529.88;5117193;27;20195;-58
2022/10/10 01:54:32;;;;;;;4.23;2.30;;;11.90;69.20;;;14.12;53.83;101524.38;5117196;28;20208;-58
2022/10/10 01:57:16;;;;;;;2.60;1.90;;;11.80;69.30;;;14.13;54.01;101524.19;5116889;28;20196;-57
2022/10/10 02:00:01;;;;;;;2.83;1.97;;;11.80;69.40;;;14.15;53.84;101521.34;5117232;28;20255;-58
2022/10/10 02:02:43;;;;;;;4.97;2.50;;;11.80;69.40;;;14.17;53.91;101517.53;5116914;28;20688;-58
2022/10/10 02:05:20;;;;;;;4.70;2.27;;;11.80;69.60;;;14.22;53.82;101516.97;5117029;28;20191;-58
2022/10/10 02:07:54;;;;;;;5.60;2.37;;;11.80;69.50;;;14.26;53.55;101515.66;5116928;28;20541;-58
2022/10/10 02:10:28;;;;;;;9.27;3.20;;;11.80;70.20;;;14.32;53.51;101514.13;5116710;28;20192;-57
2022/10/10 02:12:59;;;;;;;3.70;2.23;;;11.80;69.60;;;14.34;53.32;101512.09;5118085;27;20653;-57
2022/10/10 02:15:35;;;;;;;2.50;1.90;;;11.80;69.40;;;14.27;53.47;101506.69;5137402;27;20620;-57
2022/10/10 02:18:08;;;;;;;4.47;2.33;;;11.80;69.30;;;14.20;53.59;101508.41;5137242;27;20175;-57
2022/10/10 02:20:36;;;;;;;4.23;2.37;;;11.80;69.40;;;14.13;53.94;101500.34;5137425;27;20176;-58
2022/10/10 02:23:06;;;;;;;3.53;2.17;;;11.70;69.40;;;14.16;53.95;101500.00;5136651;27;20210;-58
2022/10/10 02:25:38;;;;;;;4.20;2.20;;;11.70;69.70;;;14.17;53.71;101493.69;5136770;27;20187;-57
2022/10/10 02:28:15;;;;;;;3.10;1.93;;;11.70;69.60;;;14.14;53.55;101485.31;5136765;27;20192;-59
2022/10/10 02:30:47;;;;;;;3.03;1.53;;;11.70;69.60;;;14.12;53.96;101487.31;5136321;27;20247;-58
2022/10/10 02:33:25;;;;;;;5.77;2.20;;;11.70;69.70;;;14.06;54.22;101490.66;5133830;27;20764;-57
2022/10/10 02:35:53;;;;;;;6.17;2.03;;;11.70;69.70;;;14.02;54.18;101484.09;5116108;28;20183;-58
2022/10/10 02:38:21;;;;;;;2.40;2.00;;;11.60;69.60;;;13.96;54.23;101476.84;5116044;28;20237;-58
2022/10/10 02:40:50;;;;;;;2.60;1.90;;;11.60;69.90;;;13.95;54.37;101475.22;5115679;28;20200;-58
2022/10/10 02:43:19;;;;;;;3.13;2.17;;;11.60;70.00;;;13.97;54.55;101481.16;5115850;28;20215;-57
2022/10/10 02:45:46;;;;;;;5.53;2.20;;;11.50;70.10;;;14.00;54.41;101472.84;5114822;28;20312;-57
2022/10/10 02:48:14;;;;;;;5.13;2.30;;;11.50;70.20;;;14.00;54.24;101472.84;5116025;28;20188;-58
2022/10/10 02:50:43;;;;;;;4.80;2.33;;;11.50;70.30;;;14.01;54.31;101463.88;5116198;28;20196;-58
2022/10/10 02:53:10;;;;;;;4.77;2.47;;;11.50;70.20;;;14.03;54.33;101459.25;5115824;28;20257;-56
2022/10/10 02:55:38;;;;;;;5.50;2.53;;;11.50;70.30;;;14.01;54.27;101458.59;5095381;28;20197;-59
2022/10/10 02:58:05;;;;;;;4.87;2.40;;;11.50;70.30;;;13.95;54.35;101461.97;5094927;28;20250;-59
2022/10/10 03:00:33;;;;;;;3.67;1.63;;;11.50;70.20;;;13.99;54.25;101465.91;5094641;28;20254;-57
2022/10/10 03:03:00;;;;;;;6.23;2.80;;;11.50;70.40;;;14.02;54.27;101455.78;5094846;28;20265;-58
2022/10/10 03:05:27;;;;;;;4.67;2.20;;;11.50;70.40;;;14.02;54.30;101460.25;5094768;28;20200;-56
2022/10/10 03:07:56;;;;;;;3.77;2.30;;;11.50;70.40;;;13.98;54.23;101458.94;5094917;28;20641;-58
2022/10/10 03:10:26;;;;;;;2.93;1.93;;;11.50;70.30;;;13.96;54.30;101450.38;5094404;28;20286;-56
2022/10/10 03:12:53;;;;;;;7.13;2.70;;;11.50;70.30;;;13.98;54.30;101458.94;5094852;28;20224;-55
2022/10/10 03:15:20;;;;;;;6.90;2.80;;;11.50;70.50;;;13.95;54.21;101454.03;5094966;28;20188;-58
2022/10/10 03:17:48;;;;;;;3.90;2.40;;;11.50;70.40;;;13.93;54.26;101456.03;5094796;28;20649;-58
2022/10/10 03:20:15;;;;;;;5.50;2.40;;;11.40;70.40;;;13.91;54.21;101458.03;5094980;28;20192;-58
2022/10/10 03:22:43;;;;;;;5.43;2.60;;;11.40;70.50;;;13.89;54.51;101450.28;5094167;28;20212;-57
2022/10/10 03:25:11;;;;;;;3.97;2.50;;;11.40;70.60;;;13.82;54.54;101446.69;5094538;28;20258;-58
2022/10/10 03:27:39;;;;;;;6.00;2.73;;;11.40;70.70;;;13.77;54.73;101450.84;5094614;28;20254;-58
2022/10/10 03:30:07;;;;;;;6.80;2.33;;;11.30;70.60;;;13.77;54.65;101451.69;5093172;28;20196;-58
2022/10/10 03:32:35;;;;;;;6.17;2.40;;;11.30;70.70;;;13.77;54.64;101458.78;5093885;28;20204;-57
2022/10/10 03:35:03;;;;;;;3.33;2.20;;;11.20;70.80;;;13.75;54.55;101452.88;5112485;28;20194;-55
2022/10/10 03:37:30;;;;;;;5.43;2.53;;;11.20;70.70;;;13.75;54.57;101447.56;5113523;28;20249;-56
2022/10/10 03:39:58;;;;;;;6.43;3.53;;;11.20;71.00;;;13.73;54.89;101447.75;5114892;28;20590;-58
2022/10/10 03:42:28;;;;;;;5.77;2.50;;;11.20;71.40;;;13.75;54.79;101445.75;5115059;28;20607;-58
2022/10/10 03:44:55;;;;;;;4.40;2.67;;;11.20;71.30;;;13.70;54.77;101444.63;5114554;28;20198;-57
2022/10/10 03:47:23;;;;;;;5.10;2.67;;;11.20;71.90;;;13.68;54.63;101441.34;5114135;28;20269;-58
2022/10/10 03:49:50;;;;;;;5.27;2.70;;;11.10;71.00;;;13.69;54.88;101441.19;5115409;28;20267;-57
2022/10/10 03:52:17;;;;;;;6.27;2.63;;;11.10;71.20;;;13.67;54.89;101445.00;5113845;28;20203;-57
2022/10/10 03:54:44;;;;;;;4.13;2.97;;;11.10;71.20;;;13.64;54.83;101445.34;5114045;28;20204;-57
2022/10/10 03:57:12;;;;;;;5.17;2.50;;;11.10;71.20;;;13.62;54.85;101434.13;5114151;28;20192;-58
2022/10/10 03:59:40;;;;;;;4.83;2.80;;;11.10;71.30;;;13.61;54.84;101435.13;5113911;28;20187;-57
2022/10/10 04:02:08;;;;;;;5.93;2.50;;;11.10;71.30;;;13.55;54.84;101434.00;5113833;28;20212;-58
2022/10/10 04:04:35;;;;;;;5.13;3.40;;;11.10;71.20;;;13.48;55.20;101431.25;5114053;28;20253;-57
2022/10/10 04:07:03;;;;;;;4.50;2.63;;;11.00;71.30;;;13.41;55.17;101425.00;5114142;28;20256;-57
2022/10/10 04:09:30;;;;;;;4.43;2.47;;;10.90;71.30;;;13.35;55.50;101430.19;5114215;28;20245;-57
2022/10/10 04:11:58;;;;;;;10.93;3.13;;;10.90;71.40;;;13.37;55.52;101413.16;5114380;28;20581;-58
2022/10/10 04:14:25;;;;;;;2.93;2.60;;;10.90;72.10;;;13.37;55.65;101413.16;5113978;28;20646;-57
2022/10/10 04:16:54;;;;;;;5.80;2.97;;;10.90;71.90;;;13.35;55.58;101409.88;5114315;28;20195;-58
2022/10/10 04:19:28;;;;;;;5.67;2.67;;;10.90;72.80;;;13.35;55.58;101399.28;5114220;28;20221;-57
2022/10/10 04:21:55;;;;;;;4.10;2.40;;;10.90;72.10;;;13.33;55.57;101398.63;5113984;28;20187;-57
2022/10/10 04:24:23;;;;;;;4.10;3.13;;;10.90;72.20;;;13.29;55.84;101410.53;5114713;27;20196;-56
2022/10/10 04:26:50;;;;;;;4.30;2.73;;;10.80;72.10;;;13.26;55.87;101410.91;5115065;28;20191;-58
2022/10/10 04:29:17;;;;;;;6.30;2.53;;;10.80;72.20;;;13.27;55.74;101407.25;5115125;28;20191;-55
2022/10/10 04:31:44;;;;;;;7.47;3.10;;;10.80;72.30;;;13.30;55.87;101406.91;5114272;28;20195;-55
2022/10/10 04:34:14;;;;;;;3.93;2.23;;;10.80;72.50;;;13.32;55.84;101398.81;5113428;28;20257;-57
2022/10/10 04:36:41;;;;;;;6.77;3.23;;;10.80;72.70;;;13.28;55.90;101401.00;5113520;27;20273;-58
2022/10/10 04:39:08;;;;;;;4.87;3.00;;;10.70;72.60;;;13.26;56.04;101389.78;5113954;28;20518;-57
2022/10/10 04:41:36;;;;;;;6.13;2.50;;;10.70;72.60;;;13.26;55.89;101394.22;5113440;28;20218;-57
2022/10/10 04:44:03;;;;;;;5.33;3.27;;;10.70;72.80;;;13.26;55.86;101389.78;5113979;28;20211;-57
2022/10/10 04:46:30;;;;;;;3.57;2.40;;;10.70;72.80;;;13.29;55.96;101393.84;5105178;28;20200;-59
2022/10/10 04:48:57;;;;;;;4.30;2.77;;;10.70;73.00;;;13.34;55.84;101387.06;5093197;28;20200;-57
2022/10/10 04:51:26;;;;;;;7.37;3.10;;;10.70;72.90;;;13.31;55.48;101387.41;5093471;28;20188;-59
2022/10/10 04:53:53;;;;;;;4.13;2.63;;;10.80;72.50;;;13.25;55.68;101376.72;5100127;28;20732;-57
2022/10/10 04:56:21;;;;;;;4.73;2.60;;;10.70;72.30;;;13.20;55.99;101385.16;5114609;28;20206;-56
2022/10/10 04:58:48;;;;;;;5.90;3.00;;;10.70;72.50;;;13.14;55.92;101380.59;5113645;28;20192;-55
2022/10/10 05:01:15;;;;;;;4.90;2.77;;;10.60;72.40;;;13.07;56.13;101379.66;5113213;28;20187;-57
2022/10/10 05:03:43;;;;;;;5.83;2.87;;;10.60;72.50;;;13.02;56.14;101384.59;5113849;28;20676;-57
2022/10/10 05:06:10;;;;;;;5.57;2.47;;;10.60;72.90;;;13.01;56.24;101380.31;5113672;28;20195;-57
2022/10/10 05:08:39;;;;;;;5.90;2.90;;;10.50;72.80;;;13.02;56.49;101381.13;5115748;28;20206;-58
2022/10/10 05:11:06;;;;;;;6.03;2.97;;;10.50;73.30;;;13.06;56.40;101372.72;5117342;28;20658;-58
2022/10/10 05:13:34;;;;;;;3.53;2.80;;;10.50;73.40;;;13.10;56.32;101379.28;5117698;28;20282;-57
2022/10/10 05:16:01;;;;;;;2.97;2.60;;;10.50;73.50;;;13.12;55.99;101366.72;5117256;28;20184;-58
2022/10/10 05:18:28;;;;;;;5.93;2.73;;;10.50;74.00;;;13.10;55.98;101363.41;5117366;28;20195;-57
2022/10/10 05:20:55;;;;;;;5.53;3.13;;;10.50;73.00;;;13.10;55.86;101367.91;5119521;27;20188;-56
2022/10/10 05:23:29;;;;;;;3.60;2.80;;;10.50;73.00;;;13.10;55.88;101367.91;5137852;27;20207;-56
2022/10/10 05:25:58;;;;;;;6.57;2.87;;;10.50;73.00;;;13.11;56.05;101367.72;5137742;27;20212;-56
2022/10/10 05:28:25;;;;;;;4.23;2.60;;;10.50;73.20;;;13.16;56.40;101367.19;5137545;27;20196;-59
2022/10/10 05:30:53;;;;;;;3.67;2.57;;;10.50;73.80;;;13.19;56.21;101359.72;5137237;27;20216;-58
2022/10/10 05:33:20;;;;;;;4.30;2.70;;;10.60;73.70;;;13.26;56.10;101368.63;5134481;27;20211;-60
2022/10/10 05:35:48;;;;;;;6.57;2.47;;;10.60;73.60;;;13.25;55.67;101361.69;5116998;28;20180;-57
2022/10/10 05:38:15;;;;;;;4.10;2.77;;;10.60;72.90;;;13.28;55.90;101363.97;5118389;28;20203;-55
2022/10/10 05:40:42;;;;;;;5.27;2.80;;;10.70;73.30;;;13.29;55.65;101352.38;5118158;27;20199;-58
2022/10/10 05:43:11;;;;;;;3.93;2.97;;;10.70;73.10;;;13.28;55.53;101356.03;5116756;28;20233;-56
2022/10/10 05:45:38;;;;;;;6.00;3.23;;;10.70;72.70;;;13.22;55.39;101367.31;5116824;28;20195;-57
2022/10/10 05:48:06;;;;;;;5.07;2.57;;;10.60;72.50;;;13.13;55.81;101363.09;5117145;28;20213;-58
2022/10/10 05:50:38;;;;;;;7.30;3.77;;;10.60;73.30;;;13.06;56.00;101361.31;5107565;28;20234;-56
2022/10/10 05:53:06;;;;;;;9.17;3.13;;;10.60;72.80;;;13.02;56.28;101366.09;5096202;27;20242;-55
2022/10/10 05:55:34;;;;;;;7.40;3.17;;;10.50;73.10;;;12.97;56.18;101360.50;5097819;28;20207;-55
2022/10/10 05:58:01;;;;;;;4.00;3.03;;;10.50;73.30;;;12.91;56.56;101359.38;5105897;28;20203;-56
2022/10/10 06:00:30;;;;;;;6.20;3.03;;;10.40;73.10;;;12.86;56.81;101355.59;5106849;28;20199;-56
2022/10/10 06:02:58;;;;;;;6.37;3.00;;;10.40;73.40;;;12.78;56.51;101350.38;5111791;28;20215;-58
2022/10/10 06:05:25;;;;;;;6.10;3.30;;;10.30;73.50;;;12.77;56.87;101352.19;5114714;27;20264;-57
2022/10/10 06:07:53;;;;;;;3.77;2.63;;;10.30;73.70;;;12.76;56.93;101355.03;5107412;27;20226;-56
2022/10/10 06:10:42;;;;;;;4.13;3.10;;;10.20;73.80;;;12.72;57.12;101348.44;5113392;28;20192;-57
2022/10/10 06:13:11;;;;;;;5.63;3.13;;;10.20;73.90;;;12.73;57.10;101350.09;5115409;28;20256;-58
2022/10/10 06:15:40;;;;;;;5.13;3.10;;;10.20;74.10;;;12.74;57.32;101351.75;5116602;28;20203;-56
2022/10/10 06:18:10;;;;;;;5.27;3.70;;;10.20;74.30;;;12.71;56.73;101355.56;5116055;27;20648;-57
2022/10/10 06:20:39;;;;;;;6.03;3.73;;;10.20;74.50;;;12.75;57.38;101348.09;5110139;27;20184;-58
2022/10/10 06:23:08;;;;;;;5.03;3.10;;;10.20;74.70;;;12.76;57.48;101352.38;5114000;27;20229;-57
2022/10/10 06:25:36;;;;;;;5.40;3.47;;;10.20;74.80;;;12.73;57.39;101348.28;5113843;28;20625;-58
2022/10/10 06:28:08;;;;;;;4.43;2.50;;;10.20;74.80;;;12.69;57.60;101339.03;5105829;28;20188;-58
2022/10/10 06:30:41;;;;;;;6.73;3.47;;;10.10;74.60;;;12.73;57.15;101344.81;5105265;28;20597;-58
2022/10/10 06:33:09;;;;;;;3.03;2.53;;;10.20;74.90;;;12.81;57.33;101340.28;5103722;28;20262;-58
2022/10/10 06:35:42;;;;;;;3.97;2.97;;;10.20;74.80;;;12.86;57.24;101347.69;5110993;27;20234;-56
2022/10/10 06:38:10;;;;;;;4.33;2.87;;;10.20;74.60;;;12.87;57.11;101341.41;5110829;27;20172;-56
2022/10/10 06:40:38;;;;;;;6.67;2.90;;;10.30;74.50;;;12.90;56.92;101343.72;5110989;28;20203;-56
2022/10/10 06:43:10;;;;;;;5.30;2.70;;;10.30;74.40;;;12.90;56.89;101338.44;5116158;28;20612;-58
2022/10/10 06:45:43;;;;;;;4.63;3.27;;;10.30;74.40;;;12.91;56.88;101348.81;5114669;28;20378;-59
2022/10/10 06:48:13;;;;;;;3.70;2.80;;;10.30;74.40;;;13.00;56.97;101340.84;5115284;28;20196;-57
2022/10/10 06:50:41;;;;;;;5.13;3.00;;;10.40;74.50;;;13.05;56.75;101347.22;5104288;27;20212;-55
2022/10/10 06:53:08;;;;;;;7.77;3.43;;;10.40;74.30;;;13.11;56.64;101341.28;5101872;28;20217;-57
2022/10/10 06:55:35;;;;;;;7.93;2.83;;;10.50;74.30;;;13.20;56.57;101337.59;5107808;27;20201;-57
2022/10/10 06:58:03;;;;;;;4.87;3.63;;;10.50;74.30;;;13.28;56.24;101329.59;5114357;28;20188;-56
2022/10/10 07:00:31;;;;;;;5.30;2.87;;;10.60;74.40;;;13.42;56.24;101331.47;5110010;28;20243;-58
2022/10/10 07:03:00;;;;;;;9.07;3.83;;;10.70;74.30;;;13.55;55.79;101329.03;5102607;27;20246;-55
2022/10/10 07:05:28;;;;;;;5.57;3.20;;;10.80;74.00;;;13.65;55.68;101341.16;5115078;28;20203;-56
2022/10/10 07:07:56;;;;;;;5.43;4.13;;;10.80;73.70;;;13.77;55.46;101337.09;5118270;28;20539;-59
2022/10/10 07:10:24;;;;;;;5.93;4.47;;;11.00;73.60;;;13.81;55.28;101325.97;5097140;28;20188;-61
2022/10/10 07:12:51;;;;;;;10.60;3.77;;;11.00;73.00;;;13.88;55.25;101328.72;5130957;27;20215;-57
2022/10/10 07:15:28;;;;;;;8.23;3.43;;;11.20;73.00;;;14.04;54.78;101326.72;5113253;28;20223;-58
2022/10/10 07:17:58;;;;;;;7.13;3.23;;;11.30;72.90;;;14.14;54.20;101329.09;5087548;28;20271;-59
2022/10/10 07:20:28;;;;;;;3.57;2.70;;;11.30;72.10;;;14.17;54.37;101326.06;5094873;28;20188;-57
2022/10/10 07:22:55;;;;;;;3.07;2.57;;;11.40;71.80;;;14.23;54.35;101330.66;5111171;27;20239;-58
2022/10/10 07:25:23;;;;;;;5.83;2.87;;;11.50;71.70;;;14.32;54.01;101329.56;5124649;27;20230;-56
2022/10/10 07:27:51;;;;;;;6.37;3.37;;;11.60;71.60;;;14.33;53.78;101325.09;5093508;28;20193;-58
2022/10/10 07:30:19;;;;;;;6.70;3.10;;;11.60;71.20;;;14.36;53.92;101324.75;5093768;28;20189;-57
2022/10/10 07:32:46;;;;;;;6.30;3.13;;;11.70;71.20;;;14.44;53.84;101329.91;5093613;28;20269;-56
2022/10/10 07:35:13;;;;;;;5.27;2.77;;;11.70;71.30;;;14.52;53.59;101332.47;5113380;28;20219;-58
2022/10/10 07:37:42;;;;;;;6.50;2.80;;;11.80;71.10;;;14.65;53.39;101336.09;5114409;28;20184;-57
2022/10/10 07:40:10;;;;;;;6.37;3.00;;;11.80;71.00;;;14.76;53.21;101332.94;5114601;27;20196;-56
2022/10/10 07:42:37;;;;;;;5.43;3.03;;;11.90;71.10;;;14.86;53.16;101325.53;5114576;28;20276;-53
2022/10/10 07:45:06;;;;;;;4.37;2.73;;;12.00;70.90;;;14.95;52.23;101331.53;5114214;28;20183;-58
2022/10/10 07:47:33;;;;;;;6.43;3.33;;;12.10;70.00;;;14.91;52.31;101325.78;5097213;28;20226;-56
2022/10/10 07:50:01;;;;;;;4.63;3.23;;;12.20;69.70;;;14.97;52.34;101331.34;5094706;28;20185;-56
2022/10/10 07:52:28;;;;;;;6.23;2.93;;;12.30;69.80;;;15.06;52.48;101340.81;5110554;28;20242;-57
2022/10/10 07:54:57;;;;;;;4.70;3.13;;;12.30;69.70;;;15.14;52.69;101328.25;5113652;28;20321;-57
2022/10/10 07:57:25;;;;;;;5.07;3.37;;;12.40;69.80;;;15.30;52.27;101335.13;5112828;28;20624;-58
2022/10/10 07:59:52;;;;;;;5.93;2.90;;;12.50;69.80;;;15.41;51.76;101326.66;5113735;28;20196;-57
2022/10/10 08:02:19;;;;;;;3.60;3.13;;;12.60;69.40;;;15.53;51.60;101331.28;5099391;27;20235;-56
2022/10/10 08:04:47;;;;;;;3.47;2.73;;;12.60;69.00;;;15.72;51.34;101328.97;5129140;27;20200;-56
2022/10/10 08:07:14;;;;;;;3.50;3.03;;;12.80;69.10;;;15.83;51.32;101328.44;5112853;28;20192;-57
2022/10/10 08:09:43;;;;;;;4.13;2.90;;;12.90;68.90;;;16.02;51.05;101320.59;5113924;28;20571;-56
2022/10/10 08:12:12;;;;;;;2.93;2.63;;;13.00;68.60;;;16.15;50.66;101326.00;5113682;28;20226;-57
2022/10/10 08:14:39;;;;;;;4.43;3.13;;;13.20;68.40;;;16.26;50.44;101317.44;5114235;28;20210;-56
2022/10/10 08:17:06;;;;;;;3.27;2.87;;;13.30;68.00;;;16.39;50.38;101316.69;5113745;28;20195;-57
2022/10/10 08:19:34;;;;;;;3.57;2.70;;;13.40;67.90;;;16.45;49.97;101315.88;5114422;28;20195;-56
2022/10/10 08:22:01;;;;;;;3.90;3.13;;;13.50;67.00;;;16.48;49.80;101317.34;5128522;27;20259;-55
2022/10/10 08:24:29;;;;;;;5.93;3.00;;;13.60;66.90;;;16.53;49.85;101318.41;5134872;27;20286;-57
2022/10/10 08:26:56;;;;;;;4.30;3.23;;;13.70;66.70;;;16.62;49.82;101308.41;5134188;27;20191;-57
2022/10/10 08:29:25;;;;;;;5.13;2.70;;;13.80;66.70;;;16.84;49.61;101302.78;5133987;27;20191;-58
2022/10/10 08:31:53;;;;;;;4.20;2.93;;;13.90;66.80;;;17.05;48.83;101299.13;5130448;27;20331;-58
2022/10/10 08:34:21;;;;;;;3.73;3.03;;;14.10;66.40;;;17.12;48.93;101297.28;5106007;27;20228;-55
2022/10/10 08:36:48;;;;;;;7.53;3.43;;;14.20;66.20;;;17.30;48.58;101294.84;5111430;27;20222;-59
2022/10/10 08:39:16;;;;;;;7.27;2.63;;;14.30;66.10;;;17.41;48.57;101291.56;5117091;27;20191;-55
2022/10/10 08:41:51;;;;;;;8.70;3.50;;;14.50;65.70;;;17.49;48.16;101299.34;5117105;27;20192;-57
2022/10/10 08:44:29;;;;;;;8.23;3.23;;;14.60;65.30;;;17.61;48.20;101296.09;5123115;27;20259;-59
2022/10/10 08:47:01;;;;;;;7.30;3.60;;;14.70;65.00;;;17.76;48.18;101296.69;5117524;28;20249;-58
2022/10/10 08:49:34;;;;;;;14.67;3.97;;;14.80;64.90;;;17.89;47.76;101299.31;5112923;28;20180;-58
2022/10/10 08:52:12;;;;;;;5.83;3.60;;;14.90;64.60;;;18.01;47.23;101292.31;5112235;28;20180;-55
2022/10/10 08:54:43;;;;;;;6.43;2.90;;;15.00;64.20;;;18.26;47.18;101285.25;5123014;28;20259;-57
2022/10/10 08:57:23;;;;;;;4.43;2.50;;;15.20;64.30;;;18.67;46.91;101287.56;5112452;28;20192;-58
2022/10/10 08:59:58;;;;;;;6.67;4.03;;;15.40;64.70;;;19.21;46.53;101284.31;5109326;28;20188;-58
2022/10/10 09:02:36;;;;;;;5.20;3.17;;;15.70;64.90;;;19.77;45.38;101285.06;5107592;28;20207;-57
2022/10/10 09:05:35;;;;;;;3.33;2.90;;;16.00;63.60;;;20.58;43.96;101282.06;5112705;28;20213;-57
2022/10/10 09:08:23;;;;;;;4.17;2.73;;;16.40;62.70;;;21.15;41.67;101284.13;5113505;28;20191;-58
2022/10/10 09:11:00;;;;;;;3.37;2.90;;;16.80;60.70;;;21.54;41.44;101288.81;5114561;27;20238;-58
2022/10/10 09:13:35;;;;;;;5.50;3.10;;;17.30;60.50;;;21.77;41.02;101281.81;5113354;28;20204;-57
2022/10/10 09:16:18;;;;;;;3.77;2.40;;;17.60;59.60;;;22.08;39.99;101274.22;5112918;28;20195;-56
2022/10/10 09:19:02;;;;;;;4.60;2.50;;;17.90;58.60;;;22.62;39.41;101280.13;5113140;28;20237;-57
2022/10/10 09:21:35;;;;;;;3.73;2.40;;;18.30;58.00;;;23.34;38.67;101268.47;5119843;28;20660;-58
2022/10/10 09:24:11;;;;;;;2.97;2.30;;;18.70;57.60;;;24.06;37.22;101271.97;5133479;27;20213;-57
2022/10/10 09:26:46;;;;;;;6.17;2.40;;;19.20;56.50;;;24.83;36.62;101271.75;5133520;27;20219;-57
2022/10/10 09:29:30;;;;;;;5.80;3.37;;;19.90;55.50;;;25.82;33.85;101277.34;5133359;27;20198;-57
2022/10/10 09:32:10;;;;;;;6.30;2.67;;;20.60;53.20;;;26.67;32.97;101274.97;5133064;27;20180;-59
2022/10/10 09:34:42;;;;;;;3.33;2.63;;;21.30;51.70;;;27.30;31.65;101270.16;5118696;27;20216;-58
2022/10/10 09:37:16;;;;;;;4.93;3.00;;;22.00;49.60;;;27.92;31.85;101262.47;5112800;28;20187;-57
2022/10/10 09:40:17;;;;;;;2.43;2.20;;;22.70;49.70;;;28.24;29.86;101264.00;5112939;28;20625;-58
2022/10/10 09:42:45;;;;;;;5.23;2.73;;;23.20;46.90;;;28.57;29.42;101263.25;5112271;28;20223;-56
2022/10/10 09:45:19;;;;;;;4.23;2.87;;;23.60;45.90;;;28.41;28.73;101259.03;5111819;28;20211;-58
2022/10/10 09:47:53;;;;;;;5.20;2.67;;;23.60;43.50;;;28.10;29.26;101264.59;5112424;28;20199;-59
2022/10/10 09:50:45;;;;;;;7.03;3.13;;;23.80;43.60;;;27.78;30.11;101261.44;5112269;28;20661;-59
2022/10/10 09:53:15;;;;;;;4.20;3.00;;;23.90;44.30;;;27.35;30.86;101262.88;5112480;28;20215;-57
2022/10/10 09:55:45;;;;;;;4.07;2.73;;;23.80;43.90;;;26.84;31.56;101267.47;5116669;28;20207;-57
2022/10/10 09:58:23;;;;;;;3.97;2.70;;;23.50;44.00;;;26.45;32.11;101262.78;5116227;28;20236;-59
2022/10/10 10:00:52;;;;;;;7.73;2.67;;;23.20;44.80;;;26.31;32.24;101269.78;5114436;28;20176;-56
2022/10/10 10:03:22;;;;;;;3.10;2.80;;;22.90;45.40;;;26.53;32.12;101265.75;5116053;28;20239;-60
2022/10/10 10:05:58;;;;;;;6.97;2.90;;;22.70;45.90;;;26.79;31.57;101263.97;5115912;28;20649;-58
2022/10/10 10:08:29;;;;;;;4.63;2.90;;;22.60;46.40;;;26.74;31.61;101270.13;5115932;28;20192;-57
2022/10/10 10:10:58;;;;;;;5.90;2.90;;;22.40;46.20;;;26.17;32.59;101266.75;5115685;28;20172;-58
2022/10/10 10:13:31;;;;;;;3.03;2.67;;;22.30;46.60;;;25.80;33.63;101276.81;5116525;28;20235;-58
2022/10/10 10:16:08;;;;;;;5.50;2.53;;;22.20;47.10;;;25.53;33.68;101275.03;5115407;28;20203;-58
2022/10/10 10:18:42;;;;;;;3.63;3.23;;;22.00;47.60;;;25.25;34.77;101278.03;5116444;28;20192;-58
2022/10/10 10:21:21;;;;;;;7.77;3.20;;;21.90;48.20;;;25.02;35.19;101275.69;5119819;27;20179;-57
2022/10/10 10:24:21;;;;;;;4.37;3.37;;;21.80;48.80;;;24.53;35.39;101276.81;5135819;27;20190;-58
2022/10/10 10:27:18;;;;;;;4.50;2.70;;;21.50;49.00;;;24.09;36.78;101282.22;5135136;27;20191;-56
2022/10/10 10:30:24;;;;;;;4.23;2.90;;;21.30;49.90;;;23.71;37.46;101279.53;5136611;27;20218;-56